Port Saint Lucie, FL

11:38 AM EDT on September 02, 2014 (GMT -0400)
Mansfield | Change Station
CLOSE
Current Station
Personal Weather Station
Location: Port St Lucie, FL
Elevation: 16 ft
Nearby Weather Stations

Elev 16 ft 27.29 °N, 80.28 °W | Updated 4 minutes ago

Mostly Cloudy
Mostly Cloudy
88.1 °F
Feels Like 100 °F
N
5.0
Wind Variable Wind from ENE
Gusts 9.0 mph

Today
High -- | Low -- °F
--% Chance of Precip.
Yesterday
High -- | Low -- °F
Precip. -- in
7:00 AM 7:40 PM
First Quarter, 52% visible
Pressure 30.10 in
Visibility 7.0 miles
Clouds Scattered Clouds 2000 ft
Mostly Cloudy 3500 ft
Heat Index 100 °F
Dew Point 77 °F
Humidity 69%
Rainfall 0.00 in
Snow Depth Not available.
UV 8.2 out of 12
Pollen 5.30 out of 12
Air Quality Not available.
Flu Activity Not available.
METAR KSUA 021447Z 10007KT 7SM SCT020 BKN035 29/23 A3010

More Conditions Fewer Conditions

Pressure 30.10 in
Visibility 7.0 miles
Clouds Scattered Clouds 2000 ft
Mostly Cloudy 3500 ft
Heat Index 100 °F
Dew Point 77 °F
Humidity 69%
Rainfall 0.00 in
Snow Depth Not available.
UV 8.2 out of 12
Pollen 5.30 out of 12
Air Quality Not available.
Flu Activity Not available.
METAR KSUA 021447Z 10007KT 7SM SCT020 BKN035 29/23 A3010

More Conditions Fewer Conditions

Nowcast | as of 10:00 am EDT on September 2, 2014

best chance for early showers or a storm will be over the Treasure Coast counties... At 1000 am...Melbourne Doppler radar showed increasing coverage of small Atlantic showers offshore from around Vero Beach southward. This activity will move west at 15 mph...and should result in showers initially forming over land areas of Indian River...Saint Lucie...and Martin counties...and possibly Okeechobee County as well...through 1:00 PM. Torrential downpours and cloud to ground lightning strikes will be the main concern by early afternoon. Additional details...including graphics are available online at: http://www.Srh.NOAA.Gov/mlb/blog.Php

×

10-Day Weather Forecast

Almanac

Astronomy

Sep. 02, 2014 Rise Set
Actual Time 7:00 AM EDT 7:40 PM EDT
Civil Twilight 6:37 AM EDT 8:04 PM EDT
Nautical Twilight 6:09 AM EDT 8:31 PM EDT
Astronomical Twilight 5:40 AM EDT 9:00 PM EDT
Moon 2:06 PM EDT 12:17 AM EDT
Length of Visible Light 13h 26m
Length of Day
12h 39m
Tomorrow will be 1m 33s shorter.
First Quarter, 52% of the Moon is Illuminated
Today
First Quarter
Sep 8
Full
Sep 15
Last Quarter
Sep 24
New
Oct 1
First Quarter

Today's Extremes

State Highs State Lows

Community

WunderPhotos

Upload Photos

1,749,700 photos uploaded!

Nearby

Snow Depth

Station Depth Elevation
No new snow has been reported.

Earthquake Activity

City Distance Mag. Time & Date
No recent earthquake activity has been reported nearby.
Minimum magnitude displayed is 2.5.

Coastal Water Temperatures

Place Temperature
Lake Worth, FL 86.0 °F
Trident Pier, FL 86.0 °F
Virginia Key, FL 86.0 °F

Nearby Weather Stations